Time;durP1;ratioP1;P1;durP2;ratioP2;P2;SDS_P1;SDS_P2;PMS_P1;PMS_P2;Temp;Humidity;BMP_temperature;BMP_pressure;BME280_temperature;BME280_humidity;BME280_pressure;Samples;Min_cycle;Max_cycle;Signal;HPM_P1;HPM_P2
2023/05/29 00:00:32;;;;;;;11.80;6.80;;;19.90;89.00;;;;;;5055626;28;20441;-74
2023/05/29 00:02:58;;;;;;;13.25;6.05;;;19.90;89.20;;;;;;5055632;28;20040;-74
2023/05/29 00:05:24;;;;;;;10.95;6.20;;;19.90;89.20;;;;;;5055599;28;20025;-74
2023/05/29 00:07:50;;;;;;;9.63;5.28;;;19.80;89.10;;;;;;5055626;28;20540;-74
2023/05/29 00:10:16;;;;;;;10.57;6.57;;;19.80;89.10;;;;;;5055346;28;20031;-73
2023/05/29 00:12:42;;;;;;;10.13;5.80;;;19.70;89.00;;;;;;5055376;28;20022;-74
2023/05/29 00:15:10;;;;;;;11.85;5.68;;;19.70;89.10;;;;;;5055278;28;20070;-73
2023/05/29 00:17:36;;;;;;;8.55;5.25;;;19.70;89.00;;;;;;5054079;28;20021;-73
2023/05/29 00:20:08;;;;;;;10.02;5.70;;;19.70;89.20;;;;;;5055441;28;20066;-74
2023/05/29 00:22:36;;;;;;;9.25;5.95;;;19.60;89.00;;;;;;5055176;28;20104;-74
2023/05/29 00:25:03;;;;;;;10.50;6.03;;;19.60;89.10;;;;;;5054985;28;20029;-74
2023/05/29 00:27:29;;;;;;;8.70;5.80;;;19.60;88.80;;;;;;5054101;28;20091;-73
2023/05/29 00:29:54;;;;;;;11.10;5.93;;;19.60;88.80;;;;;;5055176;28;20029;-74
2023/05/29 00:32:20;;;;;;;9.77;5.47;;;19.50;88.80;;;;;;5053712;28;20553;-73
2023/05/29 00:34:46;;;;;;;8.20;5.28;;;19.50;88.70;;;;;;5055087;28;20482;-74
2023/05/29 00:37:11;;;;;;;8.43;5.00;;;19.50;88.70;;;;;;5054647;28;20470;-73
2023/05/29 00:39:37;;;;;;;7.82;4.95;;;19.50;88.80;;;;;;5055023;28;20017;-74
2023/05/29 00:42:02;;;;;;;9.63;5.10;;;19.50;88.70;;;;;;5054713;28;20082;-74
2023/05/29 00:44:28;;;;;;;8.70;4.70;;;19.40;88.80;;;;;;5054953;28;20029;-73
2023/05/29 00:46:53;;;;;;;7.28;4.43;;;19.40;88.40;;;;;;5055115;28;20036;-74
2023/05/29 00:49:21;;;;;;;8.55;3.90;;;19.40;88.20;;;;;;5054702;28;20017;-73
2023/05/29 00:51:48;;;;;;;9.82;4.72;;;19.30;87.90;;;;;;5054395;28;20394;-73
2023/05/29 00:54:20;;;;;;;14.50;4.63;;;19.30;87.70;;;;;;5054775;28;20024;-73
2023/05/29 00:56:46;;;;;;;;;;;19.30;87.50;;;;;;5055136;28;20377;-74
2023/05/29 00:59:12;;;;;;;9.98;4.30;;;19.30;87.30;;;;;;5054533;28;20346;-74
2023/05/29 01:01:38;;;;;;;9.07;4.20;;;19.20;87.10;;;;;;5053269;28;20033;-74
2023/05/29 01:04:06;;;;;;;8.85;4.10;;;19.20;87.00;;;;;;5054552;28;20016;-74
2023/05/29 01:06:32;;;;;;;10.85;4.15;;;19.20;86.60;;;;;;5052937;28;20486;-73
2023/05/29 01:08:58;;;;;;;9.93;3.78;;;19.10;86.30;;;;;;5054402;28;20029;-74
2023/05/29 01:11:35;;;;;;;7.57;3.60;;;19.10;86.00;;;;;;5054376;28;20021;-73
2023/05/29 01:14:07;;;;;;;9.30;3.88;;;19.10;85.70;;;;;;5054299;28;20104;-73
2023/05/29 01:16:56;;;;;;;12.77;4.13;;;19.10;85.40;;;;;;5054242;28;20117;-73
2023/05/29 01:19:44;;;;;;;8.48;3.00;;;19.10;85.10;;;;;;5053624;28;20112;-73
2023/05/29 01:22:25;;;;;;;10.07;3.75;;;19.10;84.70;;;;;;5053870;28;20024;-74
2023/05/29 01:25:18;;;;;;;10.30;3.63;;;19.00;84.30;;;;;;5054295;28;20024;-74
2023/05/29 01:27:47;;;;;;;9.98;3.90;;;19.00;84.00;;;;;;5053809;28;20123;-73
2023/05/29 01:30:14;;;;;;;11.82;3.38;;;18.80;84.10;;;;;;5053932;28;20427;-73
2023/05/29 01:32:41;;;;;;;8.20;3.13;;;18.70;84.10;;;;;;5053932;28;20520;-74
2023/05/29 01:35:08;;;;;;;13.55;3.80;;;18.70;83.60;;;;;;5053960;28;20068;-74
2023/05/29 01:37:34;;;;;;;9.93;3.25;;;18.70;83.40;;;;;;5053806;28;20104;-74
2023/05/29 01:40:00;;;;;;;14.25;3.25;;;18.80;83.20;;;;;;5053947;28;20608;-74
2023/05/29 01:42:28;;;;;;;8.75;3.17;;;18.70;83.00;;;;;;5053681;28;20053;-73
2023/05/29 01:44:55;;;;;;;11.90;3.60;;;18.70;83.10;;;;;;5053683;28;20025;-73
2023/05/29 01:47:21;;;;;;;10.95;3.25;;;18.60;82.90;;;;;;5053779;28;20028;-73
2023/05/29 01:49:49;;;;;;;13.30;3.55;;;18.60;83.00;;;;;;5053431;28;20079;-74
2023/05/29 01:52:15;;;;;;;12.73;3.35;;;18.60;82.70;;;;;;5052375;28;20044;-74
2023/05/29 01:54:41;;;;;;;9.18;3.13;;;18.60;82.60;;;;;;5052108;28;20363;-73
2023/05/29 01:57:07;;;;;;;8.05;3.15;;;18.60;82.40;;;;;;5053509;28;20044;-74
2023/05/29 01:59:35;;;;;;;10.75;2.72;;;18.50;83.00;;;;;;5053312;28;20020;-73
2023/05/29 02:02:11;;;;;;;6.75;2.95;;;18.50;82.30;;;;;;5053481;28;20375;-74
2023/05/29 02:04:37;;;;;;;10.73;3.17;;;18.40;82.10;;;;;;5053100;28;20025;-74
2023/05/29 02:07:03;;;;;;;9.85;3.08;;;18.40;82.20;;;;;;5053430;28;20036;-74
2023/05/29 02:09:30;;;;;;;8.68;3.13;;;18.40;82.10;;;;;;5053124;28;20017;-74
2023/05/29 02:11:56;;;;;;;9.63;2.97;;;18.30;82.20;;;;;;5053293;28;20029;-73
2023/05/29 02:14:24;;;;;;;10.15;3.25;;;18.30;82.30;;;;;;5053297;28;20020;-74
2023/05/29 02:16:51;;;;;;;11.25;3.00;;;18.30;82.10;;;;;;5053441;28;20118;-74
2023/05/29 02:19:18;;;;;;;12.02;2.90;;;18.30;82.60;;;;;;5052876;28;20052;-74
2023/05/29 02:21:44;;;;;;;9.80;2.88;;;18.30;81.70;;;;;;5053114;28;20025;-74
2023/05/29 02:24:09;;;;;;;10.00;3.28;;;18.20;81.70;;;;;;5051703;28;20028;-74
2023/05/29 02:26:38;;;;;;;13.50;3.55;;;18.20;81.70;;;;;;5052973;28;20033;-74
2023/05/29 02:29:06;;;;;;;11.60;3.22;;;18.20;81.70;;;;;;5051544;28;20039;-74
2023/05/29 02:31:32;;;;;;;10.07;3.08;;;18.10;81.80;;;;;;5053062;28;20028;-74
2023/05/29 02:33:58;;;;;;;9.82;3.13;;;18.10;81.80;;;;;;5052544;28;20036;-74
2023/05/29 02:36:23;;;;;;;12.15;3.58;;;18.10;81.80;;;;;;5047151;28;20037;-74
2023/05/29 02:38:49;;;;;;;9.85;3.25;;;18.00;82.00;;;;;;5032897;28;20029;-73
2023/05/29 02:41:15;;;;;;;9.75;2.92;;;18.00;82.20;;;;;;5032720;28;20030;-73
2023/05/29 02:43:40;;;;;;;11.38;2.60;;;18.00;81.80;;;;;;5031565;28;20112;-73
2023/05/29 02:46:06;;;;;;;11.65;3.40;;;18.00;81.80;;;;;;5031641;28;20083;-73
2023/05/29 02:48:31;;;;;;;13.00;3.40;;;18.00;81.60;;;;;;5032462;28;20022;-73
2023/05/29 02:50:57;;;;;;;14.60;3.60;;;18.00;81.80;;;;;;5034726;28;20083;-73
2023/05/29 02:53:22;;;;;;;14.57;3.38;;;18.00;81.50;;;;;;5039552;28;20379;-73
2023/05/29 02:55:49;;;;;;;11.77;3.08;;;17.90;81.70;;;;;;5039393;28;20037;-74
2023/05/29 02:58:16;;;;;;;11.38;3.05;;;17.90;81.90;;;;;;5039664;28;20130;-73
2023/05/29 03:00:41;;;;;;;11.25;3.20;;;17.90;81.50;;;;;;5039255;28;20075;-74
2023/05/29 03:03:07;;;;;;;12.10;3.33;;;17.90;81.50;;;;;;5039190;28;20026;-73
2023/05/29 03:05:33;;;;;;;11.00;3.22;;;17.80;81.50;;;;;;5039199;28;20024;-73
2023/05/29 03:07:58;;;;;;;10.73;2.97;;;17.90;82.10;;;;;;5038554;28;20470;-73
2023/05/29 03:10:24;;;;;;;14.43;3.45;;;17.90;81.30;;;;;;5044365;28;20026;-74
2023/05/29 03:12:51;;;;;;;11.45;2.88;;;17.80;81.40;;;;;;5059120;28;20025;-73
2023/05/29 03:15:19;;;;;;;10.65;2.92;;;17.80;81.40;;;;;;5047231;28;20033;-74
2023/05/29 03:17:46;;;;;;;12.98;3.13;;;17.70;81.30;;;;;;5039112;28;20421;-73
2023/05/29 03:20:11;;;;;;;12.15;3.00;;;17.70;81.50;;;;;;5057271;28;20029;-73
2023/05/29 03:22:37;;;;;;;12.57;3.42;;;17.70;81.70;;;;;;5059073;28;20104;-73
2023/05/29 03:25:03;;;;;;;9.38;3.15;;;17.70;81.50;;;;;;5053120;28;20055;-74
2023/05/29 03:27:30;;;;;;;14.35;3.00;;;17.70;81.40;;;;;;5049769;28;20032;-74
2023/05/29 03:29:56;;;;;;;13.88;3.33;;;17.70;81.60;;;;;;5051789;28;20041;-73
2023/05/29 03:32:21;;;;;;;13.65;3.45;;;17.70;81.70;;;;;;5057465;28;20508;-74
2023/05/29 03:34:47;;;;;;;9.73;3.05;;;17.70;81.80;;;;;;5042404;28;20014;-73
2023/05/29 03:37:13;;;;;;;15.25;3.08;;;17.60;81.90;;;;;;5039059;28;20483;-73
2023/05/29 03:39:40;;;;;;;13.02;3.25;;;17.50;82.30;;;;;;5038634;28;20136;-73
2023/05/29 03:42:06;;;;;;;11.38;2.95;;;17.40;82.50;;;;;;5037557;28;20104;-73
2023/05/29 03:44:31;;;;;;;11.32;3.33;;;17.40;82.70;;;;;;5038939;28;20449;-74
2023/05/29 03:46:57;;;;;;;15.95;3.80;;;17.40;82.90;;;;;;5038541;28;20017;-73
2023/05/29 03:49:22;;;;;;;12.35;3.42;;;17.40;83.10;;;;;;5037872;28;20033;-73
2023/05/29 03:51:49;;;;;;;11.27;3.10;;;17.40;83.10;;;;;;5038581;28;20022;-73
2023/05/29 03:54:15;;;;;;;12.95;3.55;;;17.40;83.10;;;;;;5038793;28;20024;-73
2023/05/29 03:56:41;;;;;;;11.77;3.40;;;17.40;83.40;;;;;;5038634;28;20025;-73
2023/05/29 03:59:06;;;;;;;13.32;3.90;;;17.40;83.40;;;;;;5038684;28;20025;-74
2023/05/29 04:01:32;;;;;;;9.77;2.65;;;17.30;83.40;;;;;;5038396;28;20034;-74
2023/05/29 04:03:57;;;;;;;12.80;3.63;;;17.30;83.70;;;;;;5034553;28;20025;-73
2023/05/29 04:06:23;;;;;;;15.23;3.15;;;17.40;83.60;;;;;;5035715;28;20552;-73
2023/05/29 04:08:49;;;;;;;15.98;4.00;;;17.30;83.50;;;;;;5035660;28;20025;-73
2023/05/29 04:11:15;;;;;;;15.68;3.08;;;17.30;83.70;;;;;;5035554;28;20163;-73
2023/05/29 04:13:41;;;;;;;14.05;3.20;;;17.30;83.60;;;;;;5035651;28;20053;-73
2023/05/29 04:16:07;;;;;;;12.02;3.03;;;17.30;83.70;;;;;;5035135;28;20061;-73
2023/05/29 04:18:32;;;;;;;9.88;2.75;;;17.30;83.60;;;;;;5035524;28;20021;-73
2023/05/29 04:20:58;;;;;;;13.88;3.17;;;17.30;83.60;;;;;;5035216;28;20030;-73
2023/05/29 04:23:23;;;;;;;15.00;3.65;;;17.20;83.80;;;;;;5035415;28;20028;-73
2023/05/29 04:25:52;;;;;;;12.48;3.15;;;17.20;83.80;;;;;;5035310;28;20104;-73
2023/05/29 04:28:21;;;;;;;14.38;3.83;;;17.20;84.00;;;;;;5035694;28;20150;-73
2023/05/29 04:30:47;;;;;;;13.38;3.90;;;17.10;84.30;;;;;;5035113;28;20025;-73
2023/05/29 04:33:14;;;;;;;14.13;3.55;;;17.10;84.10;;;;;;5035035;28;20018;-73
2023/05/29 04:35:42;;;;;;;12.52;3.17;;;17.10;84.00;;;;;;5035048;28;20072;-73
2023/05/29 04:38:08;;;;;;;12.00;2.45;;;17.10;84.30;;;;;;5035080;28;20039;-74
2023/05/29 04:40:36;;;;;;;15.27;3.65;;;17.00;84.20;;;;;;5035265;28;20364;-74
2023/05/29 04:43:02;;;;;;;11.18;3.10;;;17.00;84.30;;;;;;5034936;28;20379;-74
2023/05/29 04:45:27;;;;;;;13.25;3.05;;;17.00;84.30;;;;;;5034901;28;20545;-74
2023/05/29 04:47:54;;;;;;;11.38;3.15;;;17.00;84.30;;;;;;5035263;28;20581;-73
2023/05/29 04:50:20;;;;;;;14.93;2.80;;;17.00;84.50;;;;;;5034723;28;20017;-74
2023/05/29 04:52:46;;;;;;;13.73;3.08;;;17.00;84.40;;;;;;5034842;28;20187;-73
2023/05/29 04:55:12;;;;;;;13.35;3.38;;;16.90;84.70;;;;;;5034819;28;20029;-73
2023/05/29 04:57:37;;;;;;;17.90;3.67;;;17.00;84.90;;;;;;5034476;28;20056;-73
2023/05/29 05:00:08;;;;;;;15.50;3.70;;;17.00;85.20;;;;;;5034429;28;20029;-73
2023/05/29 05:02:33;;;;;;;13.05;3.95;;;17.00;84.90;;;;;;5034469;28;20030;-73
2023/05/29 05:04:59;;;;;;;11.85;3.10;;;16.90;84.80;;;;;;5034228;28;20022;-74
2023/05/29 05:07:25;;;;;;;14.52;3.53;;;16.90;85.20;;;;;;5033082;28;20486;-73
2023/05/29 05:09:50;;;;;;;12.30;2.72;;;16.90;85.20;;;;;;5034664;28;20527;-73
2023/05/29 05:12:16;;;;;;;13.45;3.45;;;16.90;85.00;;;;;;5033256;28;20474;-74
2023/05/29 05:14:42;;;;;;;15.50;3.67;;;16.90;84.90;;;;;;5034019;28;20493;-74
2023/05/29 05:17:07;;;;;;;10.05;2.85;;;16.90;85.10;;;;;;5034306;28;20171;-74
2023/05/29 05:19:33;;;;;;;13.38;3.15;;;16.80;85.20;;;;;;5034592;28;20021;-73
2023/05/29 05:21:58;;;;;;;10.20;2.88;;;16.80;85.20;;;;;;5034296;28;20382;-73
2023/05/29 05:24:24;;;;;;;12.40;3.42;;;16.80;85.50;;;;;;5034349;28;20033;-73
2023/05/29 05:26:49;;;;;;;12.15;2.95;;;16.80;85.30;;;;;;5034428;28;20021;-73
2023/05/29 05:29:15;;;;;;;14.27;3.35;;;16.90;85.20;;;;;;5033750;28;20400;-73
2023/05/29 05:31:41;;;;;;;14.93;3.03;;;16.90;85.30;;;;;;5034089;28;20478;-73
2023/05/29 05:34:06;;;;;;;13.90;3.53;;;16.90;85.20;;;;;;5033975;28;20482;-73
2023/05/29 05:36:32;;;;;;;11.05;3.28;;;16.90;85.30;;;;;;5033877;28;20037;-74
2023/05/29 05:38:58;;;;;;;9.75;2.75;;;16.90;85.30;;;;;;5033840;28;20583;-73
2023/05/29 05:41:23;;;;;;;16.83;3.40;;;16.90;85.30;;;;;;5032761;28;20112;-74
2023/05/29 05:43:50;;;;;;;14.52;3.55;;;17.00;85.30;;;;;;5033671;28;20121;-73
2023/05/29 05:46:17;;;;;;;17.55;3.42;;;17.00;85.30;;;;;;5033673;28;20031;-73
2023/05/29 05:48:42;;;;;;;11.25;3.55;;;17.10;85.00;;;;;;5032517;28;20024;-73
2023/05/29 05:51:08;;;;;;;9.77;3.25;;;17.20;84.90;;;;;;5033840;28;20033;-73
2023/05/29 05:53:33;;;;;;;13.80;3.45;;;17.30;84.60;;;;;;5033600;28;20532;-73
2023/05/29 05:55:59;;;;;;;11.27;2.85;;;17.40;83.90;;;;;;5033678;28;20045;-73
2023/05/29 05:58:25;;;;;;;12.13;3.08;;;17.40;83.90;;;;;;5033663;28;20467;-73
2023/05/29 06:00:52;;;;;;;13.65;3.35;;;17.60;83.20;;;;;;5033594;28;20116;-73
2023/05/29 06:03:18;;;;;;;13.57;2.80;;;17.60;82.70;;;;;;5033397;28;20017;-73
2023/05/29 06:05:43;;;;;;;11.23;3.28;;;17.70;82.70;;;;;;5033610;28;20108;-73
2023/05/29 06:08:09;;;;;;;9.82;3.22;;;17.70;82.50;;;;;;5033327;28;20049;-73
2023/05/29 06:10:35;;;;;;;12.25;3.17;;;17.70;82.50;;;;;;5033491;28;20041;-73
2023/05/29 06:13:00;;;;;;;9.60;2.83;;;17.90;81.80;;;;;;5033304;28;20032;-74
2023/05/29 06:15:26;;;;;;;10.40;2.42;;;17.90;82.00;;;;;;5033618;28;20375;-73
2023/05/29 06:17:52;;;;;;;8.60;2.40;;;17.90;81.80;;;;;;5033319;28;20111;-74
2023/05/29 06:20:17;;;;;;;13.27;3.28;;;18.00;81.50;;;;;;5033207;28;20470;-73
2023/05/29 06:22:43;;;;;;;12.35;3.03;;;18.10;81.20;;;;;;5033247;28;20022;-73
2023/05/29 06:25:09;;;;;;;14.90;2.90;;;18.10;81.00;;;;;;5032693;28;20026;-73
2023/05/29 06:27:35;;;;;;;12.68;3.35;;;18.20;81.00;;;;;;5032891;28;20379;-74
2023/05/29 06:30:01;;;;;;;14.32;3.28;;;18.20;81.00;;;;;;5033110;28;20534;-73
2023/05/29 06:32:28;;;;;;;14.77;2.80;;;18.30;80.60;;;;;;5033045;28;20490;-73
2023/05/29 06:34:53;;;;;;;9.15;3.00;;;18.30;81.10;;;;;;5033027;28;20483;-73
2023/05/29 06:37:19;;;;;;;14.52;3.00;;;18.40;80.80;;;;;;5033095;28;20061;-73
2023/05/29 06:39:45;;;;;;;13.98;3.15;;;18.40;80.50;;;;;;5032851;28;20517;-73
2023/05/29 06:42:11;;;;;;;11.20;3.17;;;18.40;80.40;;;;;;5033101;28;20032;-73
2023/05/29 06:44:36;;;;;;;11.10;2.75;;;18.50;80.20;;;;;;5032868;28;20030;-73
2023/05/29 06:47:02;;;;;;;9.02;2.63;;;18.50;79.70;;;;;;5033004;28;20018;-73
2023/05/29 06:49:28;;;;;;;11.63;3.28;;;18.60;79.20;;;;;;5032861;28;20413;-74
2023/05/29 06:51:53;;;;;;;8.52;2.25;;;18.70;78.90;;;;;;5032862;28;20378;-73
2023/05/29 06:54:19;;;;;;;11.50;2.90;;;18.60;78.70;;;;;;5032480;28;20084;-73
2023/05/29 06:56:44;;;;;;;10.88;2.67;;;18.70;78.70;;;;;;5032881;28;20387;-74
2023/05/29 06:59:10;;;;;;;10.85;2.42;;;18.70;79.10;;;;;;5032770;28;20032;-74
2023/05/29 07:01:35;;;;;;;12.40;2.80;;;18.80;78.30;;;;;;5032930;28;20534;-73
2023/05/29 07:04:01;;;;;;;10.40;3.03;;;18.80;78.10;;;;;;5032999;28;20040;-73
2023/05/29 07:06:26;;;;;;;7.97;2.53;;;18.80;78.00;;;;;;5032940;28;20124;-74
2023/05/29 07:08:52;;;;;;;9.93;2.65;;;18.90;78.30;;;;;;5032528;28;20101;-73
2023/05/29 07:11:18;;;;;;;10.80;2.60;;;18.90;78.00;;;;;;5032666;28;20029;-74
2023/05/29 07:13:43;;;;;;;9.23;2.17;;;19.00;77.90;;;;;;5032808;28;20057;-73
2023/05/29 07:16:09;;;;;;;8.95;2.85;;;19.00;77.70;;;;;;5031371;28;20041;-74
2023/05/29 07:18:34;;;;;;;10.18;2.95;;;19.10;77.30;;;;;;5032167;28;20020;-69
2023/05/29 07:21:01;;;;;;;8.70;2.47;;;19.00;77.10;;;;;;5033116;28;20059;-71
2023/05/29 07:23:26;;;;;;;8.95;2.33;;;19.10;77.40;;;;;;5038989;28;20107;-70
2023/05/29 07:25:52;;;;;;;10.43;2.50;;;19.10;77.50;;;;;;5032675;28;20049;-69
2023/05/29 07:28:17;;;;;;;12.60;2.65;;;19.20;77.20;;;;;;5038664;28;20037;-70
2023/05/29 07:30:43;;;;;;;9.80;2.10;;;19.20;76.80;;;;;;5048050;28;20036;-70
2023/05/29 07:33:09;;;;;;;12.93;3.17;;;19.20;76.50;;;;;;5039322;28;20267;-70
2023/05/29 07:35:34;;;;;;;8.45;2.42;;;19.20;76.30;;;;;;5031449;28;20113;-69
2023/05/29 07:38:00;;;;;;;10.02;2.38;;;19.30;76.70;;;;;;5032555;28;20100;-69
2023/05/29 07:40:26;;;;;;;8.00;2.53;;;19.40;75.80;;;;;;5034479;28;20026;-69
2023/05/29 07:42:51;;;;;;;9.30;2.38;;;19.40;75.70;;;;;;5040148;28;20462;-71
2023/05/29 07:45:17;;;;;;;8.20;2.25;;;19.30;75.90;;;;;;5057517;28;20050;-70
2023/05/29 07:47:43;;;;;;;7.25;2.60;;;19.40;75.40;;;;;;5036475;28;20025;-70
2023/05/29 07:50:09;;;;;;;8.50;2.50;;;19.40;74.90;;;;;;5039742;28;20037;-71
2023/05/29 07:52:35;;;;;;;11.18;2.45;;;19.40;75.40;;;;;;5040310;28;20021;-70
2023/05/29 07:55:01;;;;;;;7.63;2.47;;;19.50;75.50;;;;;;5044565;28;20057;-71
2023/05/29 07:57:27;;;;;;;9.90;2.67;;;19.50;75.60;;;;;;5045170;28;20482;-70
2023/05/29 07:59:53;;;;;;;9.90;3.08;;;19.50;75.30;;;;;;5044085;28;20052;-70
2023/05/29 08:02:19;;;;;;;11.02;2.72;;;19.50;74.90;;;;;;5040232;28;20471;-71
2023/05/29 08:04:45;;;;;;;12.02;2.38;;;19.50;75.30;;;;;;5062409;28;20018;-71
2023/05/29 08:07:10;;;;;;;11.70;2.58;;;19.60;75.10;;;;;;5040800;28;20375;-70
2023/05/29 08:09:36;;;;;;;9.25;2.45;;;19.50;75.00;;;;;;5044059;28;20114;-70
2023/05/29 08:12:02;;;;;;;10.85;2.75;;;19.60;75.00;;;;;;5043679;28;20025;-70
2023/05/29 08:14:28;;;;;;;10.90;2.45;;;19.60;75.50;;;;;;5041965;28;20429;-70
2023/05/29 08:16:54;;;;;;;7.70;2.30;;;19.70;74.50;;;;;;5034886;28;20033;-70
2023/05/29 08:19:19;;;;;;;8.68;2.40;;;19.70;74.50;;;;;;5043255;28;20024;-70
2023/05/29 08:21:45;;;;;;;11.20;2.72;;;19.70;75.10;;;;;;5035325;28;20072;-70
2023/05/29 08:24:11;;;;;;;9.80;2.30;;;19.70;74.70;;;;;;5046366;28;20079;-70
2023/05/29 08:26:37;;;;;;;7.13;1.67;;;19.70;74.70;;;;;;5038376;28;20041;-70
2023/05/29 08:29:02;;;;;;;10.27;2.63;;;19.70;74.70;;;;;;5039581;28;20482;-70
2023/05/29 08:31:29;;;;;;;10.48;2.22;;;19.80;74.50;;;;;;5035813;28;20080;-70
2023/05/29 08:33:54;;;;;;;10.27;2.50;;;19.80;74.40;;;;;;5039758;28;20071;-70
2023/05/29 08:36:23;;;;;;;8.50;2.22;;;19.70;73.90;;;;;;5043820;28;20070;-69
2023/05/29 08:38:49;;;;;;;11.93;3.15;;;19.80;75.20;;;;;;5039704;28;20108;-70
2023/05/29 08:41:24;;;;;;;11.13;3.15;;;19.80;75.10;;;;;;5041335;28;20080;-70
2023/05/29 08:43:50;;;;;;;9.77;2.42;;;19.90;75.00;;;;;;5043190;28;20029;-70
2023/05/29 08:46:18;;;;;;;11.38;2.70;;;19.90;75.40;;;;;;5048801;28;20029;-71
2023/05/29 08:48:49;;;;;;;12.48;2.97;;;20.00;74.10;;;;;;5035837;28;20117;-70
2023/05/29 08:51:19;;;;;;;6.70;2.30;;;20.00;74.80;;;;;;5046700;28;20407;-71
2023/05/29 08:53:46;;;;;;;9.18;2.58;;;20.00;74.70;;;;;;5043023;28;20060;-71
2023/05/29 08:56:11;;;;;;;9.02;2.05;;;20.00;74.60;;;;;;5036762;28;20040;-70
2023/05/29 08:58:38;;;;;;;8.52;2.30;;;20.00;75.20;;;;;;5040687;28;20025;-67
2023/05/29 09:01:04;;;;;;;9.93;2.15;;;20.00;73.90;;;;;;5046289;28;20025;-67
2023/05/29 09:03:29;;;;;;;8.43;2.47;;;20.00;73.00;;;;;;5041372;28;20474;-69
2023/05/29 09:06:03;;;;;;;6.60;2.35;;;20.00;73.70;;;;;;5043653;28;20025;-69
2023/05/29 09:08:29;;;;;;;10.48;2.55;;;20.00;74.40;;;;;;5055394;28;20034;-69
2023/05/29 09:10:55;;;;;;;9.48;2.90;;;20.10;73.90;;;;;;5061387;28;20032;-69
2023/05/29 09:13:20;;;;;;;8.70;2.38;;;20.10;74.50;;;;;;5040486;28;20104;-67
2023/05/29 09:15:46;;;;;;;7.43;2.15;;;20.10;74.70;;;;;;5048307;28;20034;-70
2023/05/29 09:18:12;;;;;;;6.82;2.25;;;20.10;74.70;;;;;;5034775;28;20022;-70
2023/05/29 09:20:37;;;;;;;5.65;2.35;;;20.10;74.20;;;;;;5048179;28;20441;-70
2023/05/29 09:23:05;;;;;;;9.70;2.55;;;20.10;73.40;;;;;;5047652;28;20020;-73
2023/05/29 09:25:33;;;;;;;9.90;2.58;;;20.10;74.90;;;;;;5047399;28;20037;-72
2023/05/29 09:28:03;;;;;;;10.27;2.70;;;20.10;73.30;;;;;;5037756;28;20182;-72
2023/05/29 09:30:33;;;;;;;8.48;2.05;;;20.00;73.20;;;;;;5053184;28;20116;-72
2023/05/29 09:33:00;;;;;;;7.70;2.33;;;20.00;73.60;;;;;;5036000;28;20033;-72
2023/05/29 09:35:33;;;;;;;9.93;2.67;;;20.00;74.50;;;;;;5044433;28;20878;-71
2023/05/29 09:37:58;;;;;;;;;;;20.10;73.80;;;;;;5043113;28;20471;-71
2023/05/29 09:40:24;;;;;;;8.05;2.40;;;20.10;74.70;;;;;;5049947;28;19919;-71
2023/05/29 09:42:50;;;;;;;10.13;2.60;;;20.10;74.00;;;;;;5052882;28;20564;-71
2023/05/29 09:45:21;;;;;;;8.23;2.60;;;20.10;74.70;;;;;;5041645;28;20104;-70
2023/05/29 09:47:47;;;;;;;7.47;2.20;;;20.10;74.60;;;;;;5039621;28;20022;-71
2023/05/29 09:50:22;;;;;;;9.52;2.40;;;20.10;74.90;;;;;;5042618;28;20025;-71
2023/05/29 09:52:52;;;;;;;8.77;2.75;;;20.10;75.10;;;;;;5050901;28;20036;-71
2023/05/29 09:55:21;;;;;;;11.35;2.70;;;20.10;75.50;;;;;;5049244;28;20035;-72
2023/05/29 09:57:50;;;;;;;9.43;2.72;;;20.10;76.20;;;;;;5036953;28;20025;-72
2023/05/29 10:00:17;;;;;;;8.73;3.17;;;20.20;75.50;;;;;;5036367;28;20663;-71
2023/05/29 10:02:43;;;;;;;7.72;2.35;;;20.20;75.60;;;;;;5039825;28;20039;-70
2023/05/29 10:05:11;;;;;;;10.30;3.08;;;20.20;75.80;;;;;;5044383;28;20025;-71
2023/05/29 10:07:37;;;;;;;9.30;2.42;;;20.20;75.70;;;;;;5045391;28;20025;-71
2023/05/29 10:10:07;;;;;;;10.63;2.55;;;20.20;75.90;;;;;;5034651;28;20029;-72
2023/05/29 10:12:36;;;;;;;8.32;2.92;;;20.10;76.20;;;;;;5047919;28;20031;-71
2023/05/29 10:15:11;;;;;;;9.68;2.65;;;20.20;76.20;;;;;;5052240;28;20108;-73
2023/05/29 10:17:38;;;;;;;11.93;3.33;;;20.20;75.50;;;;;;5041647;28;20114;-73
2023/05/29 10:20:09;;;;;;;9.25;2.60;;;20.20;75.00;;;;;;5050023;28;20112;-71
2023/05/29 10:22:43;;;;;;;9.20;2.92;;;20.20;75.30;;;;;;5039405;28;20028;-71
2023/05/29 10:25:10;;;;;;;10.80;3.00;;;20.10;74.80;;;;;;5041885;28;20116;-71
2023/05/29 10:27:36;;;;;;;10.02;2.42;;;20.20;75.10;;;;;;5046931;28;20034;-72
2023/05/29 10:30:13;;;;;;;7.32;2.58;;;20.20;75.00;;;;;;5052273;28;20501;-72
2023/05/29 10:33:04;;;;;;;8.43;2.80;;;20.20;75.00;;;;;;5041161;28;20042;-71
2023/05/29 10:35:57;;;;;;;7.53;2.60;;;20.20;74.70;;;;;;5053864;28;20048;-72
2023/05/29 10:38:24;;;;;;;10.23;5.20;;;20.20;74.30;;;;;;5045736;28;20028;-72
2023/05/29 10:40:50;;;;;;;13.60;3.15;;;20.10;74.20;;;;;;5050713;28;20024;-71
2023/05/29 10:43:32;;;;;;;8.80;2.33;;;20.10;74.30;;;;;;5032508;28;20029;-71
2023/05/29 10:45:58;;;;;;;13.32;4.53;;;20.10;74.70;;;;;;5052433;28;20033;-72
2023/05/29 10:48:28;;;;;;;7.05;2.60;;;20.20;75.50;;;;;;5041763;28;20022;-72
2023/05/29 10:50:55;;;;;;;10.63;3.45;;;20.20;74.90;;;;;;5037577;28;20496;-72
2023/05/29 10:53:30;;;;;;;8.68;2.95;;;20.20;74.60;;;;;;5034589;28;20013;-71
2023/05/29 10:55:56;;;;;;;18.40;5.22;;;20.20;74.00;;;;;;5048783;28;20041;-71
2023/05/29 10:58:24;;;;;;;9.68;2.78;;;20.20;75.40;;;;;;5046864;28;20025;-71
2023/05/29 11:00:50;;;;;;;10.43;2.50;;;20.20;74.10;;;;;;5035197;28;20033;-72
2023/05/29 11:03:20;;;;;;;6.18;2.35;;;20.30;74.40;;;;;;5039768;28;20108;-72
2023/05/29 11:06:10;;;;;;;6.85;3.05;;;20.30;74.60;;;;;;5058887;28;20039;-72
2023/05/29 11:08:45;;;;;;;7.90;2.58;;;20.30;75.90;;;;;;5058636;28;20021;-72
2023/05/29 11:11:15;;;;;;;10.43;3.17;;;20.30;74.90;;;;;;5045646;28;20100;-71
2023/05/29 11:13:44;;;;;;;9.38;2.67;;;20.30;74.80;;;;;;5032365;28;20033;-71
2023/05/29 11:16:30;;;;;;;10.98;3.83;;;20.30;75.20;;;;;;5050821;28;20094;-72
2023/05/29 11:19:03;;;;;;;8.98;2.47;;;20.30;75.00;;;;;;5040949;28;20060;-74
2023/05/29 11:21:41;;;;;;;9.45;2.28;;;20.30;74.90;;;;;;5044698;28;20044;-74
2023/05/29 11:24:06;;;;;;;8.82;2.97;;;20.30;75.00;;;;;;5048148;28;20084;-76
2023/05/29 11:26:33;;;;;;;10.07;2.53;;;20.30;74.90;;;;;;5041440;28;20459;-74
2023/05/29 11:29:00;;;;;;;8.00;2.53;;;20.30;74.70;;;;;;5038548;28;20037;-74
2023/05/29 11:31:31;;;;;;;8.00;2.28;;;20.30;75.00;;;;;;5038785;28;20469;-75
2023/05/29 11:33:59;;;;;;;7.95;2.47;;;20.30;75.10;;;;;;5040852;28;20018;-75
2023/05/29 11:36:27;;;;;;;10.65;2.92;;;20.30;75.50;;;;;;5044078;28;20108;-74
2023/05/29 11:38:53;;;;;;;10.02;3.03;;;20.30;75.00;;;;;;5055127;28;20069;-75
2023/05/29 11:41:18;;;;;;;8.65;2.88;;;20.40;75.30;;;;;;5046182;28;20476;-73
2023/05/29 11:43:45;;;;;;;7.18;2.40;;;20.30;74.90;;;;;;5033435;28;20076;-73
2023/05/29 11:46:18;;;;;;;10.30;2.65;;;20.30;74.80;;;;;;5049102;28;20029;-74
2023/05/29 11:48:48;;;;;;;10.50;2.58;;;20.30;75.30;;;;;;5038242;28;20013;-75
2023/05/29 11:51:15;;;;;;;7.13;2.72;;;20.30;74.30;;;;;;5036965;28;20017;-74
2023/05/29 11:53:44;;;;;;;9.02;2.88;;;20.30;75.00;;;;;;5036529;28;20109;-73
2023/05/29 11:56:10;;;;;;;9.65;2.65;;;20.40;75.30;;;;;;5040938;28;20045;-72
2023/05/29 11:58:39;;;;;;;10.02;2.60;;;20.40;75.40;;;;;;5040860;28;20043;-74
2023/05/29 12:01:07;;;;;;;11.10;2.97;;;20.50;74.80;;;;;;5049994;28;20071;-73
2023/05/29 12:03:42;;;;;;;9.68;2.90;;;20.40;75.00;;;;;;5049497;28;20020;-73
2023/05/29 12:06:11;;;;;;;9.27;2.80;;;20.40;74.80;;;;;;5055160;28;20025;-72
2023/05/29 12:08:41;;;;;;;9.95;2.38;;;20.40;74.50;;;;;;5046968;28;20498;-74
2023/05/29 12:11:06;;;;;;;9.13;2.55;;;20.40;75.80;;;;;;5047046;28;20037;-74
2023/05/29 12:13:33;;;;;;;8.93;2.65;;;20.40;75.00;;;;;;5049157;28;20438;-75
2023/05/29 12:16:04;;;;;;;8.35;2.45;;;20.40;74.40;;;;;;5051502;28;20045;-73
2023/05/29 12:18:31;;;;;;;7.97;2.47;;;20.40;75.40;;;;;;5048238;28;20099;-74
2023/05/29 12:21:03;;;;;;;7.45;2.28;;;20.40;77.40;;;;;;5049812;28;20025;-75
2023/05/29 12:23:30;;;;;;;11.98;2.75;;;20.50;75.80;;;;;;5058060;28;20059;-74
2023/05/29 12:25:57;;;;;;;7.03;2.50;;;20.40;74.30;;;;;;5042963;28;20018;-72
2023/05/29 12:28:23;;;;;;;10.98;2.70;;;20.40;76.10;;;;;;5058058;28;20022;-73
2023/05/29 12:30:50;;;;;;;8.40;2.38;;;20.40;75.00;;;;;;5043265;28;20032;-73
2023/05/29 12:33:32;;;;;;;7.75;2.60;;;20.50;75.10;;;;;;5055474;28;20029;-73
2023/05/29 12:36:06;;;;;;;11.80;2.22;;;20.60;75.60;;;;;;5045846;28;20084;-73
2023/05/29 12:38:32;;;;;;;5.55;1.85;;;20.60;76.00;;;;;;5044927;28;20040;-73
2023/05/29 12:40:57;;;;;;;9.60;2.40;;;20.60;74.80;;;;;;5035964;28;20026;-74